Time;durP1;ratioP1;P1;durP2;ratioP2;P2;SDS_P1;SDS_P2;PMS_P1;PMS_P2;Temp;Humidity;BMP_temperature;BMP_pressure;BME280_temperature;BME280_humidity;BME280_pressure;Samples;Min_cycle;Max_cycle;Signal;HPM_P1;HPM_P2
2023/08/24 00:00:21;;;;;;;;;;;;;;;21.73;58.96;101414.78;5026093;28;4202;-70
2023/08/24 00:02:47;;;;;;;;;;;;;;;21.68;59.16;101413.13;5025736;28;4123;-70
2023/08/24 00:05:14;;;;;;;;;;;;;;;21.66;59.38;101413.00;5026640;28;4117;-70
2023/08/24 00:07:40;;;;;;;;;;;;;;;21.66;59.01;101415.88;5026228;28;4034;-70
2023/08/24 00:10:07;;;;;;;;;;;;;;;21.66;59.02;101415.16;5022979;28;4084;-70
2023/08/24 00:12:35;;;;;;;;;;;;;;;21.67;59.00;101405.09;5026639;28;4023;-70
2023/08/24 00:15:02;;;;;;;;;;;;;;;21.67;59.12;101405.09;5022958;28;4103;-69
2023/08/24 00:17:29;;;;;;;;;;;;;;;21.66;58.96;101398.59;5028016;28;5623;-70
2023/08/24 00:19:56;;;;;;;;;;;;;;;21.67;59.12;101399.34;5024229;28;5018;-69
2023/08/24 00:22:23;;;;;;;;;;;;;;;21.64;59.12;101395.63;5027271;28;4323;-70
2023/08/24 00:24:49;;;;;;;;;;;;;;;21.65;58.72;101397.13;5025078;28;4059;-70
2023/08/24 00:27:15;;;;;;;;;;;;;;;21.64;58.58;101389.84;5028336;28;4116;-70
2023/08/24 00:29:42;;;;;;;;;;;;;;;21.62;59.00;101391.88;5040361;28;4183;-70
2023/08/24 00:32:08;;;;;;;;;;;;;;;21.61;59.04;101387.53;5024147;28;4206;-70
2023/08/24 00:34:34;;;;;;;;;;;;;;;21.59;59.02;101393.94;5025251;28;4042;-70
2023/08/24 00:37:01;;;;;;;;;;;;;;;21.58;59.01;101392.44;5036898;28;4156;-69
2023/08/24 00:39:29;;;;;;;;;;;;;;;21.58;59.17;101383.81;5042518;28;4216;-70
2023/08/24 00:41:55;;;;;;;;;;;;;;;21.59;58.90;101393.94;5029033;28;4048;-69
2023/08/24 00:44:22;;;;;;;;;;;;;;;21.57;58.83;101390.19;5023844;28;4156;-70
2023/08/24 00:46:48;;;;;;;;;;;;;;;21.56;59.04;101389.47;5030461;28;4017;-70
2023/08/24 00:49:14;;;;;;;;;;;;;;;21.54;58.94;101380.72;5026186;28;4142;-70
2023/08/24 00:51:41;;;;;;;;;;;;;;;21.57;58.74;101387.31;5025681;28;4163;-71
2023/08/24 00:54:07;;;;;;;;;;;;;;;21.54;58.63;101387.22;5038230;28;4166;-70
2023/08/24 00:56:34;;;;;;;;;;;;;;;21.53;58.87;101379.22;5028805;28;4209;-71
2023/08/24 00:59:00;;;;;;;;;;;;;;;21.53;58.53;101367.69;5028416;28;4561;-69
2023/08/24 01:01:27;;;;;;;;;;;;;;;21.54;58.78;101380.72;5043241;28;4113;-71
2023/08/24 01:03:54;;;;;;;;;;;;;;;21.51;58.77;101377.00;5025534;28;4305;-70
2023/08/24 01:06:21;;;;;;;;;;;;;;;21.51;58.80;101371.22;5043045;28;5061;-70
2023/08/24 01:08:47;;;;;;;;;;;;;;;21.51;58.80;101376.25;5031356;28;4078;-71
2023/08/24 01:11:13;;;;;;;;;;;;;;;21.49;58.91;101373.25;5045566;28;4368;-70
2023/08/24 01:13:44;;;;;;;;;;;;;;;21.49;58.79;101373.25;5045344;28;4138;-70
2023/08/24 01:16:16;;;;;;;;;;;;;;;21.48;58.96;101366.00;5044865;28;3981;-70
2023/08/24 01:18:43;;;;;;;;;;;;;;;21.47;58.98;101376.03;5043407;28;4275;-71
2023/08/24 01:21:09;;;;;;;;;;;;;;;21.48;58.72;101372.50;5025424;28;4054;-70
2023/08/24 01:23:37;;;;;;;;;;;;;;;21.50;58.90;101383.38;5044729;28;4123;-70
2023/08/24 01:26:05;;;;;;;;;;;;;;;21.48;59.08;101391.94;5027928;28;4149;-70
2023/08/24 01:28:31;;;;;;;;;;;;;;;21.47;58.92;101382.53;5027298;28;4297;-71
2023/08/24 01:30:58;;;;;;;;;;;;;;;21.48;59.00;101380.41;5034873;28;4142;-70
2023/08/24 01:33:26;;;;;;;;;;;;;;;21.44;59.16;101377.31;5040033;28;4156;-71
2023/08/24 01:35:52;;;;;;;;;;;;;;;21.46;59.13;101389.72;5027361;28;4056;-71
2023/08/24 01:38:19;;;;;;;;;;;;;;;21.46;59.01;101389.72;5042897;28;4178;-70
2023/08/24 01:40:48;;;;;;;;;;;;;;;21.46;59.11;101374.53;5027799;28;4318;-71
2023/08/24 01:43:14;;;;;;;;;;;;;;;21.45;59.21;101396.09;5025880;28;4304;-71
2023/08/24 01:45:50;;;;;;;;;;;;;;;21.45;59.37;101396.09;5034513;28;4173;-70
2023/08/24 01:48:18;;;;;;;;;;;;;;;21.46;59.57;101392.59;5023954;28;4079;-70
2023/08/24 01:50:44;;;;;;;;;;;;;;;21.48;59.37;101389.03;5010021;28;4066;-70
2023/08/24 01:53:11;;;;;;;;;;;;;;;21.42;59.49;101385.88;5027554;28;4072;-70
2023/08/24 01:55:38;;;;;;;;;;;;;;;21.42;59.80;101380.84;5025496;28;4234;-71
2023/08/24 01:58:05;;;;;;;;;;;;;;;21.45;59.71;101375.94;5025201;28;4054;-70
2023/08/24 02:00:32;;;;;;;;;;;;;;;21.45;59.71;101370.16;5044188;28;4106;-71
2023/08/24 02:02:58;;;;;;;;;;;;;;;21.43;59.93;101375.84;5022645;28;4148;-71
2023/08/24 02:05:27;;;;;;;;;;;;;;;21.40;59.91;101362.69;5040658;28;4312;-70
2023/08/24 02:07:54;;;;;;;;;;;;;;;21.41;59.86;101372.84;5026244;28;4123;-71
2023/08/24 02:10:21;;;;;;;;;;;;;;;21.41;59.91;101373.59;5027512;28;4147;-70
2023/08/24 02:12:48;;;;;;;;;;;;;;;21.41;59.98;101384.38;5026446;28;4467;-71
2023/08/24 02:15:14;;;;;;;;;;;;;;;21.39;60.02;101372.72;5043729;28;4083;-70
2023/08/24 02:17:41;;;;;;;;;;;;;;;21.40;59.96;101377.09;5026797;28;4374;-70
2023/08/24 02:20:11;;;;;;;;;;;;;;;21.44;60.24;101368.66;5040495;28;4148;-70
2023/08/24 02:22:37;;;;;;;;;;;;;;;21.46;60.37;101365.88;5024596;28;4886;-70
2023/08/24 02:25:07;;;;;;;;;;;;;;;21.46;60.44;101363.00;5027910;28;4174;-69
2023/08/24 02:27:33;;;;;;;;;;;;;;;21.47;60.50;101367.41;5043352;28;4072;-70
2023/08/24 02:30:00;;;;;;;;;;;;;;;21.48;60.46;101366.72;5025082;28;4078;-70
2023/08/24 02:32:26;;;;;;;;;;;;;;;21.47;60.63;101361.63;5044470;28;4374;-70
2023/08/24 02:34:53;;;;;;;;;;;;;;;21.47;60.62;101361.63;5030660;28;4523;-70
2023/08/24 02:37:19;;;;;;;;;;;;;;;21.47;60.96;101353.72;5024351;28;4363;-71
2023/08/24 02:39:46;;;;;;;;;;;;;;;21.47;60.85;101350.09;5022951;28;4889;-71
2023/08/24 02:42:12;;;;;;;;;;;;;;;21.47;61.13;101365.25;5024738;28;4145;-70
2023/08/24 02:44:38;;;;;;;;;;;;;;;21.48;60.88;101360.97;5026064;28;4440;-70
2023/08/24 02:47:05;;;;;;;;;;;;;;;21.47;61.50;101358.75;5028429;28;4135;-69
2023/08/24 02:49:31;;;;;;;;;;;;;;;21.48;61.36;101360.22;5029916;28;4487;-70
2023/08/24 02:51:58;;;;;;;;;;;;;;;21.51;61.60;101364.72;5026120;28;4203;-70
2023/08/24 02:54:26;;;;;;;;;;;;;;;21.52;61.79;101360.44;5024151;28;4158;-70
2023/08/24 02:56:53;;;;;;;;;;;;;;;21.53;61.79;101361.91;5030713;28;4207;-69
2023/08/24 02:59:19;;;;;;;;;;;;;;;21.53;62.17;101353.28;5026490;28;4024;-70
2023/08/24 03:01:47;;;;;;;;;;;;;;;21.53;62.56;101356.16;5040505;28;3999;-71
2023/08/24 03:04:13;;;;;;;;;;;;;;;21.54;62.31;101357.66;5026920;28;4175;-71
2023/08/24 03:06:39;;;;;;;;;;;;;;;21.54;62.87;101358.41;5028109;28;4164;-71
2023/08/24 03:09:06;;;;;;;;;;;;;;;21.55;62.97;101364.91;5024870;28;4141;-70
2023/08/24 03:11:33;;;;;;;;;;;;;;;21.53;63.21;101356.91;5037216;28;4178;-71
2023/08/24 03:13:59;;;;;;;;;;;;;;;21.54;63.65;101366.31;5024150;28;4190;-71
2023/08/24 03:16:26;;;;;;;;;;;;;;;21.55;63.88;101370.66;5039325;28;4030;-71
2023/08/24 03:18:52;;;;;;;;;;;;;;;21.55;63.87;101367.78;5027910;28;4140;-71
2023/08/24 03:21:19;;;;;;;;;;;;;;;21.55;64.11;101362.03;5026782;28;4133;-70
2023/08/24 03:23:45;;;;;;;;;;;;;;;21.56;64.08;101362.78;5029706;28;4239;-70
2023/08/24 03:26:12;;;;;;;;;;;;;;;21.58;64.26;101357.09;5022177;28;4167;-72
2023/08/24 03:28:38;;;;;;;;;;;;;;;21.58;64.38;101351.34;5030266;28;4247;-70
2023/08/24 03:31:05;;;;;;;;;;;;;;;21.61;63.96;101355.81;5025355;28;4211;-69
2023/08/24 03:33:34;;;;;;;;;;;;;;;21.59;64.43;101347.81;5022832;28;4034;-70
2023/08/24 03:36:01;;;;;;;;;;;;;;;21.59;64.51;101336.28;5028267;28;4211;-69
2023/08/24 03:38:27;;;;;;;;;;;;;;;21.57;64.86;101344.81;5029465;28;3993;-70
2023/08/24 03:40:59;;;;;;;;;;;;;;;21.54;65.24;101346.13;5021734;28;4361;-70
2023/08/24 03:43:25;;;;;;;;;;;;;;;21.54;64.88;101340.38;5022664;28;4584;-70
2023/08/24 03:45:53;;;;;;;;;;;;;;;21.53;65.09;101333.88;5040401;28;5304;-70
2023/08/24 03:48:19;;;;;;;;;;;;;;;21.52;65.20;101341.00;5023618;28;4178;-70
2023/08/24 03:50:46;;;;;;;;;;;;;;;21.55;65.41;101336.09;5040899;28;4385;-70
2023/08/24 03:53:12;;;;;;;;;;;;;;;21.51;65.66;101336.66;5026336;28;4044;-70
2023/08/24 03:55:39;;;;;;;;;;;;;;;21.53;65.68;101338.88;5023608;28;4609;-70
2023/08/24 03:58:05;;;;;;;;;;;;;;;21.54;65.51;101340.38;5038230;28;4121;-70
2023/08/24 04:00:32;;;;;;;;;;;;;;;21.53;65.60;101345.41;5026451;28;4052;-69
2023/08/24 04:03:00;;;;;;;;;;;;;;;21.54;65.55;101341.09;5037502;28;4377;-69
2023/08/24 04:05:27;;;;;;;;;;;;;;;21.54;65.66;101334.59;5028149;28;4401;-70
2023/08/24 04:07:54;;;;;;;;;;;;;;;21.56;65.83;101339.72;5028796;28;4604;-70
2023/08/24 04:10:20;;;;;;;;;;;;;;;21.57;65.61;101339.06;5027994;28;4368;-71
2023/08/24 04:12:47;;;;;;;;;;;;;;;21.56;65.83;101336.84;5040062;28;4243;-70
2023/08/24 04:15:13;;;;;;;;;;;;;;;21.56;65.99;101337.59;5025220;28;4025;-70
2023/08/24 04:17:39;;;;;;;;;;;;;;;21.55;66.21;101336.09;5025499;28;4155;-70
2023/08/24 04:20:11;;;;;;;;;;;;;;;21.56;66.24;101331.81;5023486;28;4614;-70
2023/08/24 04:22:37;;;;;;;;;;;;;;;21.57;66.29;101332.56;5024401;28;4238;-70
2023/08/24 04:25:04;;;;;;;;;;;;;;;21.58;66.52;101334.03;5027497;28;4191;-70
2023/08/24 04:27:30;;;;;;;;;;;;;;;21.58;66.63;101334.81;5026062;28;4399;-70
2023/08/24 04:29:57;;;;;;;;;;;;;;;21.58;66.44;101331.94;5024664;28;4143;-69
2023/08/24 04:32:23;;;;;;;;;;;;;;;21.57;66.51;101333.31;5023265;28;4036;-70
2023/08/24 04:34:50;;;;;;;;;;;;;;;21.57;66.86;101324.66;5022299;28;4357;-70
2023/08/24 04:37:16;;;;;;;;;;;;;;;21.58;66.90;101334.03;5023612;28;5161;-70
2023/08/24 04:39:43;;;;;;;;;;;;;;;21.57;66.82;101339.06;5022934;28;4418;-70
2023/08/24 04:42:09;;;;;;;;;;;;;;;21.57;67.15;101339.06;5031224;28;4186;-70
2023/08/24 04:44:35;;;;;;;;;;;;;;;21.57;66.97;101338.31;5028552;28;4074;-70
2023/08/24 04:47:02;;;;;;;;;;;;;;;21.56;67.04;101337.59;5025006;28;4488;-70
2023/08/24 04:49:30;;;;;;;;;;;;;;;21.54;67.04;101341.09;5029599;28;4218;-70
2023/08/24 04:51:56;;;;;;;;;;;;;;;21.58;66.87;101346.34;5035817;28;4040;-70
2023/08/24 04:54:22;;;;;;;;;;;;;;;21.60;66.96;101352.19;5026844;28;4896;-70
2023/08/24 04:56:49;;;;;;;;;;;;;;;21.62;66.94;101355.16;5025612;28;4094;-70
2023/08/24 04:59:15;;;;;;;;;;;;;;;21.62;67.03;101352.28;5025575;28;4041;-70
2023/08/24 05:01:42;;;;;;;;;;;;;;;21.64;67.05;101355.25;5028110;28;4197;-70
2023/08/24 05:04:08;;;;;;;;;;;;;;;21.63;66.83;101345.13;5028236;28;4154;-70
2023/08/24 05:06:34;;;;;;;;;;;;;;;21.65;66.56;101351.00;5025195;28;3938;-70
2023/08/24 05:09:01;;;;;;;;;;;;;;;21.67;66.23;101353.22;5030127;28;4306;-69
2023/08/24 05:11:29;;;;;;;;;;;;;;;21.69;66.01;101356.97;5029251;28;4156;-70
2023/08/24 05:13:55;;;;;;;;;;;;;;;21.69;65.63;101356.97;5026000;28;4322;-68
2023/08/24 05:16:22;;;;;;;;;;;;;;;21.70;65.59;101349.81;5028506;28;4218;-70
2023/08/24 05:18:48;;;;;;;;;;;;;;;21.71;65.42;101356.31;5022861;28;4020;-70
2023/08/24 05:21:15;;;;;;;;;;;;;;;21.71;64.79;101353.44;5024737;28;4309;-70
2023/08/24 05:23:41;;;;;;;;;;;;;;;21.77;64.71;101355.88;5026609;28;4076;-70
2023/08/24 05:26:07;;;;;;;;;;;;;;;21.78;64.58;101352.31;5023588;28;4101;-70
2023/08/24 05:28:34;;;;;;;;;;;;;;;21.78;64.65;101358.09;5024346;28;4267;-70
2023/08/24 05:31:00;;;;;;;;;;;;;;;21.77;64.53;101355.88;5023525;28;4259;-68
2023/08/24 05:33:27;;;;;;;;;;;;;;;21.70;65.01;101349.81;5021672;28;4133;-67
2023/08/24 05:35:53;;;;;;;;;;;;;;;21.59;65.34;101356.47;5026351;28;4000;-68
2023/08/24 05:38:20;;;;;;;;;;;;;;;21.54;65.31;101357.66;5026187;28;4145;-68
2023/08/24 05:40:47;;;;;;;;;;;;;;;21.47;65.73;101355.88;5034210;28;4165;-68
2023/08/24 05:43:13;;;;;;;;;;;;;;;21.50;65.47;101358.19;5030304;28;5732;-68
2023/08/24 05:45:40;;;;;;;;;;;;;;;21.68;65.93;101358.34;5028141;28;3968;-73
2023/08/24 05:48:07;;;;;;;;;;;;;;;21.72;65.28;101355.66;5028761;28;4349;-75
2023/08/24 05:50:33;;;;;;;;;;;;;;;21.60;65.67;101349.31;5028435;28;4541;-76
2023/08/24 05:53:00;;;;;;;;;;;;;;;21.63;65.12;101348.03;5028566;28;4167;-70
2023/08/24 05:55:26;;;;;;;;;;;;;;;21.86;65.08;101358.50;5024254;28;4089;-74
2023/08/24 05:57:53;;;;;;;;;;;;;;;21.91;64.92;101350.78;5028461;28;4050;-69
2023/08/24 06:00:20;;;;;;;;;;;;;;;21.92;64.97;101360.91;5031005;28;4127;-70
2023/08/24 06:02:46;;;;;;;;;;;;;;;21.94;64.76;101346.59;5027637;28;4152;-69
2023/08/24 06:05:13;;;;;;;;;;;;;;;21.96;64.88;101349.56;5030315;28;3975;-70
2023/08/24 06:07:39;;;;;;;;;;;;;;;21.97;64.50;101356.84;5028599;28;4193;-72
2023/08/24 06:10:06;;;;;;;;;;;;;;;21.97;64.33;101353.97;5032377;28;4482;-70
2023/08/24 06:12:32;;;;;;;;;;;;;;;22.00;64.28;101361.31;5028753;28;4547;-70
2023/08/24 06:15:01;;;;;;;;;;;;;;;22.01;64.25;101357.03;5028956;28;4102;-70
2023/08/24 06:17:28;;;;;;;;;;;;;;;22.03;64.15;101351.34;5034458;28;3988;-71
2023/08/24 06:19:54;;;;;;;;;;;;;;;22.06;63.71;101358.72;5031797;28;3937;-73
2023/08/24 06:22:21;;;;;;;;;;;;;;;22.50;64.87;101359.31;5026875;28;4243;-77
2023/08/24 06:24:47;;;;;;;;;;;;;;;22.73;63.09;101345.91;5035324;28;4182;-78
2023/08/24 06:27:13;;;;;;;;;;;;;;;22.86;62.78;101347.94;5029001;28;4100;-76
2023/08/24 06:29:42;;;;;;;;;;;;;;;22.92;62.01;101348.19;5044842;28;5548;-75
2023/08/24 06:32:08;;;;;;;;;;;;;;;22.46;62.56;101353.38;5031222;28;4230;-72
2023/08/24 06:34:35;;;;;;;;;;;;;;;22.33;62.76;101354.19;5030312;28;4236;-71
2023/08/24 06:37:01;;;;;;;;;;;;;;;22.34;62.98;101352.81;5027941;28;4260;-70
2023/08/24 06:39:28;;;;;;;;;;;;;;;22.34;63.07;101359.31;5028729;28;4200;-71
2023/08/24 06:41:54;;;;;;;;;;;;;;;22.33;62.88;101357.09;5027628;28;4039;-71
2023/08/24 06:44:24;;;;;;;;;;;;;;;22.32;62.60;101352.72;5028331;28;4125;-71
2023/08/24 06:46:50;;;;;;;;;;;;;;;22.31;62.81;101359.88;5029023;28;4171;-70
2023/08/24 06:49:18;;;;;;;;;;;;;;;22.30;62.90;101364.91;5028507;28;4337;-71
2023/08/24 06:51:44;;;;;;;;;;;;;;;22.32;62.77;101364.25;5031154;28;4840;-71
2023/08/24 06:54:11;;;;;;;;;;;;;;;22.32;62.93;101372.91;5028144;28;4056;-71
2023/08/24 06:56:37;;;;;;;;;;;;;;;22.33;62.91;101365.75;5028573;28;4069;-71
2023/08/24 06:59:04;;;;;;;;;;;;;;;22.33;62.88;101365.75;5030931;28;4103;-71
2023/08/24 07:01:31;;;;;;;;;;;;;;;22.32;62.68;101372.91;5029615;28;4158;-71
2023/08/24 07:03:58;;;;;;;;;;;;;;;22.33;62.76;101377.28;5030410;28;4530;-71
2023/08/24 07:06:24;;;;;;;;;;;;;;;22.33;62.81;101380.16;5032610;28;4364;-71
2023/08/24 07:08:51;;;;;;;;;;;;;;;22.34;62.52;101375.91;5034889;28;4160;-71
2023/08/24 07:11:17;;;;;;;;;;;;;;;22.35;62.63;101365.84;5027784;28;4153;-71
2023/08/24 07:13:45;;;;;;;;;;;;;;;22.36;62.48;101376.00;5026412;28;4050;-71
2023/08/24 07:16:12;;;;;;;;;;;;;;;22.35;62.60;101372.34;5027308;28;4412;-71
2023/08/24 07:18:39;;;;;;;;;;;;;;;22.35;62.45;101365.84;5031223;28;4099;-71
2023/08/24 07:21:06;;;;;;;;;;;;;;;22.35;62.31;101360.81;5031356;28;4180;-71
2023/08/24 07:23:32;;;;;;;;;;;;;;;22.36;62.26;101373.09;5029145;28;4175;-71
2023/08/24 07:25:59;;;;;;;;;;;;;;;22.37;62.37;101363.03;5027975;28;4187;-71
2023/08/24 07:28:25;;;;;;;;;;;;;;;22.37;62.43;101363.03;5023668;28;4099;-71
2023/08/24 07:30:55;;;;;;;;;;;;;;;22.37;62.29;101357.28;5026133;28;4004;-71
2023/08/24 07:33:22;;;;;;;;;;;;;;;22.36;62.25;101356.53;5040539;28;4162;-71
2023/08/24 07:35:49;;;;;;;;;;;;;;;22.37;62.18;101357.28;5030682;28;4886;-71
2023/08/24 07:38:15;;;;;;;;;;;;;;;22.37;62.20;101358.00;5026896;28;4128;-71
2023/08/24 07:40:41;;;;;;;;;;;;;;;22.38;62.27;101361.66;5026983;28;3945;-71
2023/08/24 07:43:08;;;;;;;;;;;;;;;22.38;62.47;101359.53;5030609;28;4209;-71
2023/08/24 07:45:34;;;;;;;;;;;;;;;22.38;62.40;101350.88;5029170;28;4010;-71
2023/08/24 07:48:01;;;;;;;;;;;;;;;22.40;62.24;101350.19;5026644;28;4200;-71
2023/08/24 07:50:27;;;;;;;;;;;;;;;22.41;62.13;101357.47;5029073;28;4872;-71
2023/08/24 07:52:54;;;;;;;;;;;;;;;22.41;62.08;101351.69;5026666;28;4159;-71
2023/08/24 07:55:23;;;;;;;;;;;;;;;22.41;62.33;101351.69;5029580;28;3985;-71
2023/08/24 07:57:49;;;;;;;;;;;;;;;22.42;62.21;101350.28;5029919;28;4139;-71
2023/08/24 08:00:16;;;;;;;;;;;;;;;22.43;62.08;101348.91;5027324;28;4662;-70
2023/08/24 08:02:42;;;;;;;;;;;;;;;22.44;62.30;101352.53;5026841;28;4128;-71
2023/08/24 08:05:12;;;;;;;;;;;;;;;22.44;61.98;101347.50;5026106;28;4448;-70
2023/08/24 08:07:39;;;;;;;;;;;;;;;22.44;61.98;101356.16;5046688;28;4169;-70
2023/08/24 08:10:06;;;;;;;;;;;;;;;22.46;62.06;101359.13;5025304;28;4198;-70
2023/08/24 08:12:33;;;;;;;;;;;;;;;22.46;62.28;101358.41;5031585;28;4037;-70
2023/08/24 08:14:59;;;;;;;;;;;;;;;22.47;62.22;101360.63;5025206;28;4164;-70
2023/08/24 08:17:27;;;;;;;;;;;;;;;22.46;62.15;101356.25;5027434;28;4179;-70
2023/08/24 08:19:54;;;;;;;;;;;;;;;22.46;62.33;101341.81;5026124;28;4101;-71
2023/08/24 08:22:20;;;;;;;;;;;;;;;22.47;62.23;101340.44;5026956;28;4231;-71
2023/08/24 08:24:47;;;;;;;;;;;;;;;22.48;62.23;101339.03;5026449;28;4039;-70
2023/08/24 08:27:13;;;;;;;;;;;;;;;22.47;61.94;101331.78;5032073;28;3889;-70
2023/08/24 08:29:40;;;;;;;;;;;;;;;22.48;62.12;101327.50;5029542;28;4054;-70
2023/08/24 08:32:07;;;;;;;;;;;;;;;22.48;62.29;101333.25;5027844;28;4122;-70
2023/08/24 08:34:34;;;;;;;;;;;;;;;22.49;62.03;101331.09;5032564;28;4190;-70
2023/08/24 08:37:00;;;;;;;;;;;;;;;22.50;62.34;101335.50;5029127;28;4125;-70
2023/08/24 08:39:26;;;;;;;;;;;;;;;22.50;62.21;101329.72;5029231;28;4158;-70
2023/08/24 08:41:53;;;;;;;;;;;;;;;22.50;62.00;101336.25;5023634;28;4232;-70
2023/08/24 08:44:19;;;;;;;;;;;;;;;22.50;62.30;101327.56;5037573;28;4138;-70
2023/08/24 08:46:46;;;;;;;;;;;;;;;22.51;62.09;101326.16;5041649;28;4038;-70
2023/08/24 08:49:15;;;;;;;;;;;;;;;22.52;61.94;101316.13;5029014;28;4095;-70
2023/08/24 08:51:42;;;;;;;;;;;;;;;22.52;61.94;101313.25;5041237;28;4208;-71
2023/08/24 08:54:09;;;;;;;;;;;;;;;22.52;62.41;101315.38;5024505;28;4180;-71
2023/08/24 08:56:35;;;;;;;;;;;;;;;22.69;62.28;101311.06;5027405;28;4040;-69
2023/08/24 08:59:02;;;;;;;;;;;;;;;22.82;62.08;101321.75;5024382;28;4227;-67
2023/08/24 09:01:28;;;;;;;;;;;;;;;22.90;62.31;101319.22;5041488;28;4028;-69
2023/08/24 09:03:54;;;;;;;;;;;;;;;22.84;62.08;101315.31;5030397;28;4184;-68
2023/08/24 09:06:22;;;;;;;;;;;;;;;23.07;61.46;101308.41;5028985;28;4195;-68
2023/08/24 09:08:49;;;;;;;;;;;;;;;23.09;61.94;101311.34;5021733;28;4260;-67
2023/08/24 09:11:17;;;;;;;;;;;;;;;23.10;61.18;101309.97;5027715;28;4071;-67
2023/08/24 09:13:44;;;;;;;;;;;;;;;23.12;61.51;101299.22;5045697;28;3945;-66
2023/08/24 09:16:15;;;;;;;;;;;;;;;23.14;61.16;101307.25;5033363;28;4133;-67
2023/08/24 09:18:46;;;;;;;;;;;;;;;23.23;59.96;101285.19;5037216;28;4267;-65
2023/08/24 09:21:13;;;;;;;;;;;;;;;23.04;60.93;101293.09;5032933;28;4439;-67
2023/08/24 09:23:51;;;;;;;;;;;;;;;22.96;61.18;101284.81;5029616;28;4151;-70
2023/08/24 09:26:27;;;;;;;;;;;;;;;23.24;60.77;101286.69;5029785;28;4005;-64
2023/08/24 09:28:53;;;;;;;;;;;;;;;23.31;60.30;101292.06;5030716;28;3981;-67
2023/08/24 09:31:20;;;;;;;;;;;;;;;23.21;60.36;101286.63;5032773;28;4118;-66
2023/08/24 09:33:47;;;;;;;;;;;;;;;23.21;60.78;101283.72;5031965;28;4259;-67
2023/08/24 09:36:13;;;;;;;;;;;;;;;23.21;60.48;101283.00;5029335;28;4019;-66
2023/08/24 09:38:45;;;;;;;;;;;;;;;23.20;60.71;101281.50;5028051;28;4065;-67
2023/08/24 09:41:12;;;;;;;;;;;;;;;23.36;60.10;101279.25;5032447;28;4306;-68
2023/08/24 09:43:38;;;;;;;;;;;;;;;23.39;60.16;101272.19;5032761;28;4148;-69
2023/08/24 09:46:06;;;;;;;;;;;;;;;23.46;59.97;101272.44;5046317;28;4021;-70
2023/08/24 09:48:33;;;;;;;;;;;;;;;23.45;59.71;101265.16;5031485;28;4175;-68
2023/08/24 09:51:00;;;;;;;;;;;;;;;23.29;59.57;101265.22;5032966;28;4146;-66
2023/08/24 09:53:27;;;;;;;;;;;;;;;23.37;59.78;101269.19;5035178;28;4160;-70
2023/08/24 09:55:54;;;;;;;;;;;;;;;23.30;58.81;101261.69;5032729;28;4009;-70
2023/08/24 09:58:21;;;;;;;;;;;;;;;23.38;59.05;101262.00;5035970;28;4216;-69
2023/08/24 10:00:48;;;;;;;;;;;;;;;23.53;58.96;101256.81;5046679;28;4056;-69
2023/08/24 10:03:16;;;;;;;;;;;;;;;23.58;58.58;101256.28;5037637;28;4351;-71
2023/08/24 10:05:43;;;;;;;;;;;;;;;23.60;58.82;101252.75;5032201;28;4171;-69
2023/08/24 10:08:27;;;;;;;;;;;;;;;23.66;58.35;101250.06;5041669;28;4102;-69
2023/08/24 10:10:54;;;;;;;;;;;;;;;23.63;58.29;101239.84;5027665;28;3974;-68
2023/08/24 10:13:23;;;;;;;;;;;;;;;23.61;58.22;101246.28;5044959;28;4007;-72
2023/08/24 10:15:50;;;;;;;;;;;;;;;23.60;58.76;101246.97;5034847;28;4016;-77
2023/08/24 10:18:17;;;;;;;;;;;;;;;23.69;58.42;101248.03;5032791;28;3995;-75
2023/08/24 10:20:45;;;;;;;;;;;;;;;23.64;58.38;101247.13;5026793;28;4246;-62
2023/08/24 10:23:11;;;;;;;;;;;;;;;23.56;58.75;101238.13;5045264;28;3984;-70
2023/08/24 10:25:38;;;;;;;;;;;;;;;23.63;58.56;101248.53;5035565;28;4197;-68
2023/08/24 10:28:04;;;;;;;;;;;;;;;23.68;57.81;101238.59;5042550;28;3953;-68
2023/08/24 10:30:31;;;;;;;;;;;;;;;23.67;58.06;101234.22;5046689;28;4316;-68
2023/08/24 10:32:57;;;;;;;;;;;;;;;23.67;57.69;101240.00;5037307;28;4118;-69
2023/08/24 10:35:24;;;;;;;;;;;;;;;23.73;56.18;101242.38;5033807;28;4168;-72
2023/08/24 10:37:52;;;;;;;;;;;;;;;23.83;57.39;101252.22;5035537;28;4039;-67
2023/08/24 10:40:33;;;;;;;;;;;;;;;23.85;56.69;101247.94;5029718;28;4270;-71
2023/08/24 10:43:04;;;;;;;;;;;;;;;23.88;57.30;101256.03;5032337;28;4247;-68
2023/08/24 10:46:03;;;;;;;;;;;;;;;23.83;57.02;101251.50;5031569;28;4000;-69
2023/08/24 10:48:31;;;;;;;;;;;;;;;23.83;57.17;101249.34;4999207;28;3943;-69
2023/08/24 10:51:17;;;;;;;;;;;;;;;23.72;57.34;101238.03;5032916;28;4202;-70
2023/08/24 10:53:47;;;;;;;;;;;;;;;23.75;57.29;101248.28;5034582;28;4030;-63
2023/08/24 10:56:17;;;;;;;;;;;;;;;23.71;56.41;101243.06;5032643;28;4103;-65
2023/08/24 10:58:44;;;;;;;;;;;;;;;23.66;56.61;101237.78;5042209;28;4246;-65
2023/08/24 11:01:14;;;;;;;;;;;;;;;23.61;57.56;101237.63;5025229;28;4035;-65
2023/08/24 11:03:45;;;;;;;;;;;;;;;23.92;56.90;101230.16;5024364;28;4349;-65
2023/08/24 11:06:21;;;;;;;;;;;;;;;24.02;56.80;101215.31;5028193;28;4157;-64
2023/08/24 11:08:48;;;;;;;;;;;;;;;24.10;56.65;101209.06;5032547;28;4192;-65
2023/08/24 11:11:21;;;;;;;;;;;;;;;24.13;56.49;101207.75;5030786;28;4084;-64
2023/08/24 11:14:06;;;;;;;;;;;;;;;24.03;56.96;101187.88;5032029;28;4328;-65
2023/08/24 11:16:39;;;;;;;;;;;;;;;24.02;56.99;101192.16;5028625;28;5334;-65
2023/08/24 11:19:06;;;;;;;;;;;;;;;24.17;57.09;101187.66;5024744;28;4213;-64
2023/08/24 11:21:33;;;;;;;;;;;;;;;24.22;56.76;101192.91;5036358;28;4379;-64
2023/08/24 11:24:00;;;;;;;;;;;;;;;24.09;56.41;101187.34;5028639;28;4157;-63
2023/08/24 11:26:26;;;;;;;;;;;;;;;24.06;57.31;101183.66;5029344;28;4196;-66
2023/08/24 11:28:53;;;;;;;;;;;;;;;24.05;56.94;101167.69;5036477;28;4020;-67
2023/08/24 11:31:19;;;;;;;;;;;;;;;24.11;56.92;101170.81;5031416;28;4036;-64
2023/08/24 11:33:46;;;;;;;;;;;;;;;24.13;56.90;101167.25;5034626;28;4095;-63
2023/08/24 11:36:12;;;;;;;;;;;;;;;24.19;57.18;101162.44;5039913;28;4132;-63
2023/08/24 11:38:39;;;;;;;;;;;;;;;24.19;56.82;101156.63;5037692;28;4196;-62
2023/08/24 11:41:12;;;;;;;;;;;;;;;24.35;56.75;101147.03;5038316;28;4064;-63
2023/08/24 11:43:39;;;;;;;;;;;;;;;24.43;56.55;101144.41;5033672;28;4250;-64
2023/08/24 11:46:05;;;;;;;;;;;;;;;24.46;56.45;101151.75;5035973;28;4095;-63
2023/08/24 11:48:32;;;;;;;;;;;;;;;24.44;56.09;101143.00;5041742;28;4228;-67
2023/08/24 11:50:58;;;;;;;;;;;;;;;24.38;56.36;101140.66;5028008;28;4278;-66
2023/08/24 11:53:24;;;;;;;;;;;;;;;24.24;56.81;101132.22;5034870;28;4160;-68
2023/08/24 11:55:54;;;;;;;;;;;;;;;24.31;56.97;101147.63;5028969;28;4177;-66
2023/08/24 11:58:31;;;;;;;;;;;;;;;24.23;56.94;101136.53;5030390;28;4158;-66
2023/08/24 12:00:57;;;;;;;;;;;;;;;24.29;57.14;101132.34;5035617;28;4105;-68
2023/08/24 12:03:24;;;;;;;;;;;;;;;24.25;57.07;101145.25;5038261;28;4170;-66
2023/08/24 12:05:50;;;;;;;;;;;;;;;24.16;57.56;101137.69;5033510;28;4229;-62
2023/08/24 12:08:16;;;;;;;;;;;;;;;24.15;57.17;101135.50;5028112;28;3923;-64
2023/08/24 12:10:43;;;;;;;;;;;;;;;24.22;57.24;101145.88;5026928;28;4078;-64
2023/08/24 12:13:11;;;;;;;;;;;;;;;24.11;57.28;101138.97;5026784;28;4153;-65
2023/08/24 12:15:38;;;;;;;;;;;;;;;24.00;57.42;101125.56;5025243;28;4047;-66
2023/08/24 12:18:11;;;;;;;;;;;;;;;24.04;57.57;101117.03;5045982;28;4582;-64
2023/08/24 12:20:37;;;;;;;;;;;;;;;24.13;57.52;101115.91;5050502;28;3957;-62
2023/08/24 12:23:05;;;;;;;;;;;;;;;24.04;56.42;101114.16;5026362;28;4048;-62
2023/08/24 12:25:35;;;;;;;;;;;;;;;23.94;57.21;101113.78;5023095;28;4544;-63
2023/08/24 12:28:11;;;;;;;;;;;;;;;24.18;57.42;101105.94;5034232;28;4208;-62
2023/08/24 12:30:50;;;;;;;;;;;;;;;24.36;57.06;101108.00;5026356;28;4208;-61
2023/08/24 12:33:27;;;;;;;;;;;;;;;24.46;56.79;101117.00;5028665;28;4089;-62
2023/08/24 12:35:53;;;;;;;;;;;;;;;24.50;56.60;101117.19;5027535;28;4255;-63
2023/08/24 12:38:20;;;;;;;;;;;;;;;24.35;56.66;101101.47;5029648;28;4071;-64
2023/08/24 12:40:46;;;;;;;;;;;;;;;24.41;56.93;101086.44;5027429;28;4191;-62
2023/08/24 12:43:13;;;;;;;;;;;;;;;24.42;56.58;101087.94;5029225;28;4171;-63
2023/08/24 12:45:39;;;;;;;;;;;;;;;24.55;56.01;101069.56;5025445;28;4133;-63
2023/08/24 12:48:07;;;;;;;;;;;;;;;24.60;55.83;101067.56;5030876;28;4209;-63